createdAt,value
2022-11-25T00:01:07.307Z,2.75
2022-11-25T00:03:35.952Z,2.71
2022-11-25T00:06:13.899Z,2.89
2022-11-25T00:08:44.350Z,3.02
2022-11-25T00:11:11.902Z,3.01
2022-11-25T00:13:42.864Z,2.99
2022-11-25T00:16:14.284Z,3.03
2022-11-25T00:18:43.675Z,3.02
2022-11-25T00:21:13.026Z,3.10
2022-11-25T00:23:39.514Z,3.05
2022-11-25T00:26:18.396Z,3.09
2022-11-25T00:28:49.953Z,3.08
2022-11-25T00:31:19.349Z,3.06
2022-11-25T00:33:48.382Z,3.00
2022-11-25T00:36:23.688Z,3.02
2022-11-25T00:38:59.287Z,3.09
2022-11-25T00:41:45.666Z,3.05
2022-11-25T00:44:32.866Z,3.00
2022-11-25T00:47:00.231Z,3.03
2022-11-25T00:49:27.077Z,3.02
2022-11-25T00:51:53.729Z,2.98
2022-11-25T00:54:22.483Z,2.97
2022-11-25T00:56:53.751Z,2.98
2022-11-25T00:59:20.319Z,2.93
2022-11-25T01:01:50.302Z,2.94
2022-11-25T01:04:17.180Z,2.99
2022-11-25T01:06:44.277Z,2.99
2022-11-25T01:09:12.210Z,2.94
2022-11-25T01:11:38.896Z,3.01
2022-11-25T01:14:05.458Z,2.97
2022-11-25T01:16:32.607Z,2.95
2022-11-25T01:19:03.566Z,2.98
2022-11-25T01:21:32.323Z,2.95
2022-11-25T01:24:01.172Z,2.96
2022-11-25T01:26:28.366Z,2.97
2022-11-25T01:29:00.359Z,2.99
2022-11-25T01:31:29.567Z,3.06
2022-11-25T01:33:59.690Z,3.06
2022-11-25T01:36:27.016Z,3.14
2022-11-25T01:38:58.537Z,3.23
2022-11-25T01:41:27.552Z,3.57
2022-11-25T01:44:05.963Z,3.57
2022-11-25T01:46:44.521Z,3.50
2022-11-25T01:49:17.741Z,3.45
2022-11-25T01:51:55.633Z,3.41
2022-11-25T01:54:28.235Z,3.41
2022-11-25T01:57:02.247Z,3.64
2022-11-25T01:59:35.302Z,3.60
2022-11-25T02:02:01.838Z,3.60
2022-11-25T02:04:33.542Z,3.63
2022-11-25T02:07:07.475Z,3.65
2022-11-25T02:09:38.513Z,3.75
2022-11-25T02:12:05.903Z,3.88
2022-11-25T02:14:34.687Z,3.91
2022-11-25T02:17:03.925Z,3.93
2022-11-25T02:19:47.149Z,4.02
2022-11-25T02:22:23.777Z,4.08
2022-11-25T02:24:57.381Z,4.23
2022-11-25T02:27:23.799Z,4.20
2022-11-25T02:29:52.091Z,4.21
2022-11-25T02:32:22.908Z,4.26
2022-11-25T02:34:49.909Z,4.24
2022-11-25T02:37:19.234Z,4.24
2022-11-25T02:39:48.556Z,4.25
2022-11-25T02:42:17.578Z,4.29
2022-11-25T02:44:46.076Z,4.28
2022-11-25T02:47:12.493Z,4.25
2022-11-25T02:49:38.863Z,4.27
2022-11-25T02:52:05.267Z,4.31
2022-11-25T02:54:31.735Z,4.39
2022-11-25T02:56:58.257Z,4.46
2022-11-25T02:59:24.677Z,4.51
2022-11-25T03:01:51.248Z,4.58
2022-11-25T03:04:17.681Z,4.52
2022-11-25T03:06:44.057Z,4.62
2022-11-25T03:09:10.508Z,4.71
2022-11-25T03:11:55.367Z,4.81
2022-11-25T03:14:21.811Z,4.80
2022-11-25T03:16:48.442Z,4.75
2022-11-25T03:19:14.804Z,4.80
2022-11-25T03:21:43.733Z,4.78
2022-11-25T03:24:10.070Z,4.79
2022-11-25T03:26:36.463Z,4.79
2022-11-25T03:29:02.876Z,4.86
2022-11-25T03:31:29.395Z,4.87
2022-11-25T03:33:56.148Z,4.96
2022-11-25T03:36:22.522Z,4.92
2022-11-25T03:38:48.921Z,4.88
2022-11-25T03:41:15.282Z,4.90
2022-11-25T03:43:44.303Z,4.86
2022-11-25T03:46:10.793Z,4.85
2022-11-25T03:48:37.215Z,4.84
2022-11-25T03:51:03.654Z,4.81
2022-11-25T03:53:30.215Z,4.86
2022-11-25T03:55:56.614Z,4.87
2022-11-25T03:58:23.038Z,4.81
2022-11-25T04:00:49.551Z,4.85
2022-11-25T04:03:15.921Z,4.80
2022-11-25T04:05:42.395Z,4.80
2022-11-25T04:08:08.858Z,4.80
2022-11-25T04:10:35.336Z,4.79
2022-11-25T04:13:04.323Z,4.80
2022-11-25T04:15:30.872Z,4.81
2022-11-25T04:17:59.405Z,4.77
2022-11-25T04:20:25.888Z,4.80
2022-11-25T04:22:52.250Z,4.79
2022-11-25T04:25:18.671Z,4.82
2022-11-25T04:27:45.470Z,4.87
2022-11-25T04:30:12.353Z,4.91
2022-11-25T04:32:39.153Z,4.92
2022-11-25T04:35:08.430Z,4.95
2022-11-25T04:37:37.249Z,4.98
2022-11-25T04:40:04.019Z,5.01
2022-11-25T04:42:36.915Z,5.06
2022-11-25T04:45:25.401Z,5.07
2022-11-25T04:47:52.144Z,5.06
2022-11-25T04:50:22.320Z,5.06
2022-11-25T04:52:48.825Z,5.05
2022-11-25T04:55:22.809Z,5.09
2022-11-25T04:57:49.165Z,5.08
2022-11-25T05:00:18.488Z,5.11
2022-11-25T05:02:44.976Z,5.21
2022-11-25T05:05:12.263Z,5.18
2022-11-25T05:07:38.890Z,5.21
2022-11-25T05:10:06.748Z,5.16
2022-11-25T05:12:33.165Z,5.24
2022-11-25T05:14:59.642Z,5.21
2022-11-25T05:17:28.423Z,5.19
2022-11-25T05:19:55.028Z,5.07
2022-11-25T05:22:24.916Z,5.00
2022-11-25T05:24:51.856Z,4.95
2022-11-25T05:27:19.269Z,4.93
2022-11-25T05:29:45.776Z,4.85
2022-11-25T05:32:12.747Z,4.91
2022-11-25T05:34:41.998Z,4.96
2022-11-25T05:37:09.871Z,4.92
2022-11-25T05:39:36.317Z,4.93
2022-11-25T05:42:06.296Z,4.94
2022-11-25T05:44:32.627Z,4.95
2022-11-25T05:46:59.010Z,4.94
2022-11-25T05:49:25.363Z,4.95
2022-11-25T05:51:54.062Z,4.97
2022-11-25T05:54:20.427Z,4.98
2022-11-25T05:56:46.869Z,5.02
2022-11-25T05:59:13.397Z,5.04
2022-11-25T06:01:39.885Z,5.09
2022-11-25T06:04:06.324Z,5.15
2022-11-25T06:06:37.666Z,5.16
2022-11-25T06:09:04.118Z,5.17
2022-11-25T06:11:32.916Z,5.19
2022-11-25T06:13:59.435Z,5.23
2022-11-25T06:16:26.281Z,5.22
2022-11-25T06:18:52.746Z,5.26
2022-11-25T06:21:19.153Z,5.27
2022-11-25T06:23:46.131Z,5.27
2022-11-25T06:26:20.633Z,5.29
2022-11-25T06:28:47.243Z,5.28
2022-11-25T06:31:20.276Z,5.29
2022-11-25T06:33:48.573Z,5.32
2022-11-25T06:36:18.292Z,5.35
2022-11-25T06:38:54.594Z,5.33
2022-11-25T06:41:22.380Z,5.32
2022-11-25T06:43:48.774Z,5.36
2022-11-25T06:46:23.099Z,5.38
2022-11-25T06:48:51.915Z,5.45
2022-11-25T06:51:18.581Z,5.44
2022-11-25T06:53:45.795Z,5.46
2022-11-25T06:56:15.653Z,5.50
2022-11-25T06:58:43.503Z,5.52
2022-11-25T07:01:16.502Z,5.56
2022-11-25T07:03:44.753Z,5.56
2022-11-25T07:06:12.821Z,5.57
2022-11-25T07:08:39.979Z,5.56
2022-11-25T07:11:11.718Z,5.61
2022-11-25T07:13:38.395Z,5.63
2022-11-25T07:16:08.106Z,5.61
2022-11-25T07:18:36.638Z,5.64
2022-11-25T07:21:09.331Z,5.63
2022-11-25T07:23:37.094Z,5.64
2022-11-25T07:26:14.775Z,5.64
2022-11-25T07:28:41.764Z,5.66
2022-11-25T07:31:24.852Z,5.66
2022-11-25T07:33:57.962Z,5.68
2022-11-25T07:36:25.759Z,5.70
2022-11-25T07:38:52.473Z,5.72
2022-11-25T07:41:21.854Z,5.74
2022-11-25T07:43:54.266Z,5.77
2022-11-25T07:46:27.421Z,5.80
2022-11-25T07:48:56.147Z,5.82
2022-11-25T07:51:28.245Z,5.85
2022-11-25T07:53:56.328Z,5.91
2022-11-25T07:56:23.350Z,5.95
2022-11-25T07:58:49.828Z,5.98
2022-11-25T08:01:18.433Z,5.97
2022-11-25T08:03:46.879Z,6.00
2022-11-25T08:06:15.853Z,6.05
2022-11-25T08:08:43.383Z,6.07
2022-11-25T08:11:17.138Z,6.09
2022-11-25T08:13:49.813Z,6.10
2022-11-25T08:16:19.300Z,6.11
2022-11-25T08:18:46.545Z,6.12
2022-11-25T08:21:15.484Z,6.12
2022-11-25T08:23:47.496Z,6.12
2022-11-25T08:26:22.702Z,6.08
2022-11-25T08:28:49.638Z,6.12
2022-11-25T08:31:19.967Z,6.14
2022-11-25T08:33:47.310Z,6.14
2022-11-25T08:36:15.405Z,6.14
2022-11-25T08:38:42.684Z,6.22
2022-11-25T08:41:11.767Z,6.23
2022-11-25T08:43:41.557Z,6.24
2022-11-25T08:46:10.951Z,6.28
2022-11-25T08:48:37.824Z,6.27
2022-11-25T08:51:10.454Z,6.31
2022-11-25T08:53:38.616Z,6.30
2022-11-25T08:56:06.093Z,6.30
2022-11-25T08:58:33.335Z,6.29
2022-11-25T09:00:59.688Z,6.29
2022-11-25T09:03:26.281Z,6.29
2022-11-25T09:05:54.687Z,6.31
2022-11-25T09:08:23.621Z,6.28
2022-11-25T09:10:51.198Z,6.30
2022-11-25T09:13:17.679Z,6.31
2022-11-25T09:15:44.176Z,6.33
2022-11-25T09:18:11.130Z,6.38
2022-11-25T09:20:39.737Z,6.40
2022-11-25T09:23:08.373Z,6.49
2022-11-25T09:25:36.108Z,6.59
2022-11-25T09:28:05.641Z,6.69
2022-11-25T09:30:32.288Z,6.80
2022-11-25T09:32:58.864Z,6.85
2022-11-25T09:35:25.930Z,6.87
2022-11-25T09:37:52.470Z,6.87
2022-11-25T09:40:39.636Z,6.91
2022-11-25T09:43:58.653Z,6.90
2022-11-25T09:46:52.468Z,6.95
2022-11-25T09:49:21.699Z,6.95
2022-11-25T09:52:09.189Z,6.99
2022-11-25T09:54:59.131Z,7.06
2022-11-25T09:57:39.563Z,7.15
2022-11-25T10:00:19.591Z,7.25
2022-11-25T10:03:09.888Z,7.22
2022-11-25T10:05:47.229Z,7.22
2022-11-25T10:08:22.886Z,7.20
2022-11-25T10:10:58.776Z,7.24
2022-11-25T10:13:34.188Z,7.25
2022-11-25T10:16:07.033Z,7.28
2022-11-25T10:18:50.155Z,7.39
2022-11-25T10:21:18.874Z,7.46
2022-11-25T10:23:47.767Z,7.52
2022-11-25T10:26:17.408Z,7.59
2022-11-25T10:28:57.149Z,7.64
2022-11-25T10:31:31.180Z,7.71
2022-11-25T10:34:01.377Z,7.73
2022-11-25T10:36:33.459Z,7.75
2022-11-25T10:39:14.871Z,7.81
2022-11-25T10:41:59.489Z,7.85
2022-11-25T10:44:28.787Z,7.87
2022-11-25T10:47:32.433Z,7.89
2022-11-25T10:50:03.820Z,7.92
2022-11-25T10:52:37.521Z,7.94
2022-11-25T10:55:20.690Z,8.01
2022-11-25T10:57:47.210Z,8.07
2022-11-25T11:00:35.682Z,8.10
2022-11-25T11:03:24.479Z,8.19
2022-11-25T11:05:52.704Z,8.24
2022-11-25T11:08:25.321Z,8.30
2022-11-25T11:11:09.209Z,8.33
2022-11-25T11:13:35.723Z,8.26
2022-11-25T11:16:02.321Z,8.24
2022-11-25T11:18:37.593Z,8.31
2022-11-25T11:21:07.245Z,8.33
2022-11-25T11:23:51.752Z,8.31
2022-11-25T11:26:24.980Z,8.32
2022-11-25T11:29:12.725Z,8.29
2022-11-25T11:31:51.655Z,8.29
2022-11-25T11:34:36.788Z,8.33
2022-11-25T11:37:21.837Z,8.35
2022-11-25T11:40:16.280Z,8.35
2022-11-25T11:42:45.650Z,8.39
2022-11-25T11:45:24.271Z,8.39
2022-11-25T11:48:01.114Z,8.44
2022-11-25T11:50:38.084Z,8.47
2022-11-25T11:53:30.417Z,8.46
2022-11-25T11:59:06.702Z,8.56
2022-11-25T12:01:51.441Z,8.61
2022-11-25T12:04:42.196Z,8.64
2022-11-25T12:07:12.088Z,8.78
2022-11-25T12:09:53.896Z,8.83
2022-11-25T12:12:27.883Z,8.87
2022-11-25T12:15:04.280Z,8.90
2022-11-25T12:17:36.906Z,8.91
2022-11-25T12:20:10.389Z,8.99
2022-11-25T12:22:46.597Z,8.97
2022-11-25T12:25:31.723Z,9.07
2022-11-25T12:28:21.174Z,9.19
2022-11-25T12:31:06.032Z,9.19
2022-11-25T12:33:54.260Z,9.22
2022-11-25T12:36:31.029Z,9.28
2022-11-25T12:39:02.245Z,9.35
2022-11-25T12:41:43.654Z,9.35
2022-11-25T12:44:31.412Z,9.35
2022-11-25T12:46:58.770Z,9.44
2022-11-25T12:49:31.844Z,9.54
2022-11-25T12:52:10.332Z,9.63
2022-11-25T12:54:51.847Z,9.70
2022-11-25T12:57:50.445Z,9.73
2022-11-25T13:03:39.922Z,9.84
2022-11-25T13:06:16.334Z,9.99
2022-11-25T13:08:48.578Z,10.09
2022-11-25T13:11:26.945Z,10.21
2022-11-25T13:14:12.756Z,10.29
2022-11-25T13:16:40.784Z,10.38
2022-11-25T13:19:16.200Z,10.35
2022-11-25T13:22:20.659Z,10.46
2022-11-25T13:24:47.451Z,10.41
2022-11-25T13:27:40.230Z,10.47
2022-11-25T13:30:32.577Z,10.48
2022-11-25T13:33:11.398Z,10.51
2022-11-25T13:35:49.361Z,10.46
2022-11-25T13:38:30.867Z,10.49
2022-11-25T13:41:20.160Z,10.40
2022-11-25T13:44:01.740Z,10.35
2022-11-25T13:46:42.245Z,10.21
2022-11-25T13:49:30.617Z,10.05
2022-11-25T13:52:26.370Z,10.09
2022-11-25T13:54:55.479Z,10.10
2022-11-25T13:57:27.908Z,10.05
2022-11-25T13:59:56.139Z,10.04
2022-11-25T14:02:31.098Z,10.02
2022-11-25T14:05:04.374Z,9.98
2022-11-25T14:07:40.832Z,9.95
2022-11-25T14:10:31.247Z,9.95
2022-11-25T14:13:19.317Z,9.94
2022-11-25T14:16:03.741Z,9.92
2022-11-25T14:22:23.135Z,9.82
2022-11-25T14:24:53.389Z,9.75
2022-11-25T14:27:22.450Z,9.60
2022-11-25T14:30:06.371Z,9.48
2022-11-25T14:32:47.670Z,9.41
2022-11-25T14:35:16.190Z,9.33
2022-11-25T14:37:52.026Z,9.20
2022-11-25T14:41:00.129Z,9.07
2022-11-25T14:43:29.144Z,9.00
2022-11-25T14:46:15.363Z,8.90
2022-11-25T14:48:43.685Z,8.85
2022-11-25T14:51:18.518Z,8.73
2022-11-25T14:53:48.427Z,8.72
2022-11-25T14:56:21.475Z,8.67
2022-11-25T14:58:51.599Z,8.56
2022-11-25T15:01:23.186Z,8.48
2022-11-25T15:03:52.018Z,8.38
2022-11-25T15:06:22.252Z,8.34
2022-11-25T15:08:59.404Z,8.26
2022-11-25T15:11:31.558Z,8.14
2022-11-25T15:14:03.742Z,8.06
2022-11-25T15:16:37.026Z,7.98
2022-11-25T15:19:06.432Z,7.85
2022-11-25T15:21:53.750Z,7.75
2022-11-25T15:24:48.873Z,7.70
2022-11-25T15:27:25.172Z,7.73
2022-11-25T15:29:53.538Z,7.71
2022-11-25T15:32:22.711Z,7.72
2022-11-25T15:34:50.624Z,7.73
2022-11-25T15:37:17.154Z,7.74
2022-11-25T15:39:44.063Z,7.77
2022-11-25T15:42:21.572Z,7.75
2022-11-25T15:44:54.659Z,7.74
2022-11-25T15:47:24.711Z,7.70
2022-11-25T15:50:25.629Z,7.73
2022-11-25T15:52:56.886Z,7.75
2022-11-25T15:55:38.685Z,7.72
2022-11-25T15:58:21.209Z,7.77
2022-11-25T16:01:07.493Z,7.80
2022-11-25T16:03:35.562Z,7.83
2022-11-25T16:06:02.740Z,7.89
2022-11-25T16:08:36.367Z,7.94
2022-11-25T16:11:18.250Z,7.96
2022-11-25T16:13:46.482Z,7.97
2022-11-25T16:16:24.160Z,7.96
2022-11-25T16:19:02.802Z,8.06
2022-11-25T16:21:38.704Z,7.96
2022-11-25T16:24:08.183Z,8.01
2022-11-25T16:26:50.242Z,8.02
2022-11-25T16:29:19.073Z,8.09
2022-11-25T16:31:45.822Z,8.08
2022-11-25T16:34:17.954Z,8.13
2022-11-25T16:36:44.781Z,8.11
2022-11-25T16:39:11.635Z,8.09
2022-11-25T16:41:41.032Z,8.11
2022-11-25T16:44:21.162Z,8.09
2022-11-25T16:46:47.657Z,8.12
2022-11-25T16:49:20.218Z,8.07
2022-11-25T16:51:46.769Z,8.13
2022-11-25T16:54:16.222Z,8.08
2022-11-25T16:56:43.597Z,8.07
2022-11-25T16:59:19.271Z,8.03
2022-11-25T17:01:48.927Z,8.01
2022-11-25T17:04:16.522Z,7.97
2022-11-25T17:06:50.542Z,7.93
2022-11-25T17:09:32.270Z,7.88
2022-11-25T17:12:03.394Z,7.81
2022-11-25T17:14:35.782Z,7.73
2022-11-25T17:17:04.997Z,7.62
2022-11-25T17:19:31.809Z,7.53
2022-11-25T17:21:58.468Z,7.45
2022-11-25T17:24:25.464Z,7.34
2022-11-25T17:27:04.979Z,7.31
2022-11-25T17:29:41.862Z,7.24
2022-11-25T17:32:12.701Z,7.19
2022-11-25T17:34:39.744Z,7.09
2022-11-25T17:37:24.029Z,7.06
2022-11-25T17:39:55.745Z,6.99
2022-11-25T17:42:28.581Z,6.91
2022-11-25T17:44:55.269Z,6.83
2022-11-25T17:47:21.859Z,6.72
2022-11-25T17:49:49.526Z,6.70
2022-11-25T17:52:16.143Z,6.66
2022-11-25T17:54:42.770Z,6.56
2022-11-25T17:57:19.822Z,6.49
2022-11-25T17:59:48.740Z,6.44
2022-11-25T18:02:20.980Z,6.41
2022-11-25T18:04:47.761Z,6.33
2022-11-25T18:07:16.654Z,6.29
2022-11-25T18:09:44.451Z,6.28
2022-11-25T18:12:18.504Z,6.30
2022-11-25T18:14:46.232Z,6.30
2022-11-25T18:17:16.612Z,6.27
2022-11-25T18:19:52.905Z,6.28
2022-11-25T18:22:21.549Z,6.21
2022-11-25T18:24:48.200Z,6.20
2022-11-25T18:27:24.899Z,6.19
2022-11-25T18:29:52.299Z,6.23
2022-11-25T18:32:19.600Z,6.27
2022-11-25T18:34:48.456Z,6.37
2022-11-25T18:37:14.943Z,6.33
2022-11-25T18:39:41.971Z,6.35
2022-11-25T18:42:20.928Z,6.38
2022-11-25T18:44:48.217Z,6.45
2022-11-25T18:47:14.686Z,6.41
2022-11-25T18:49:41.085Z,6.43
2022-11-25T18:52:07.518Z,6.50
2022-11-25T18:54:35.239Z,6.55
2022-11-25T18:57:04.880Z,6.53
2022-11-25T18:59:37.206Z,6.57
2022-11-25T19:02:03.649Z,6.80
2022-11-25T19:04:30.475Z,6.77
2022-11-25T19:06:56.837Z,6.82
2022-11-25T19:09:23.188Z,6.85
2022-11-25T19:11:52.355Z,6.88
2022-11-25T19:14:32.934Z,6.81
2022-11-25T19:17:06.468Z,6.94
2022-11-25T19:19:33.234Z,6.98
2022-11-25T19:22:01.379Z,6.96
2022-11-25T19:24:30.691Z,7.04
2022-11-25T19:26:57.583Z,7.00
2022-11-25T19:29:32.255Z,7.01
2022-11-25T19:32:01.927Z,7.03
2022-11-25T19:34:43.925Z,6.97
2022-11-25T19:37:20.340Z,6.99
2022-11-25T19:39:51.254Z,6.94
2022-11-25T19:42:17.911Z,6.91
2022-11-25T19:44:48.160Z,6.89
2022-11-25T19:47:25.757Z,6.86
2022-11-25T19:50:02.727Z,6.83
2022-11-25T19:52:34.960Z,6.82
2022-11-25T19:55:25.570Z,6.82
2022-11-25T19:57:54.819Z,6.80
2022-11-25T20:00:23.546Z,6.80
2022-11-25T20:02:55.987Z,6.79
2022-11-25T20:05:29.426Z,6.90
2022-11-25T20:07:55.841Z,6.91
2022-11-25T20:10:32.083Z,6.98
2022-11-25T20:12:59.553Z,7.12
2022-11-25T20:15:26.801Z,7.11
2022-11-25T20:18:01.947Z,7.08
2022-11-25T20:20:34.916Z,7.12
2022-11-25T20:23:20.147Z,7.13
2022-11-25T20:25:48.762Z,7.15
2022-11-25T20:28:25.034Z,7.10
2022-11-25T20:30:53.000Z,7.06
2022-11-25T20:33:24.337Z,7.03
2022-11-25T20:35:54.629Z,7.05
2022-11-25T20:38:27.247Z,7.01
2022-11-25T20:40:58.708Z,6.99
2022-11-25T20:43:38.653Z,6.98
2022-11-25T20:46:11.929Z,6.96
2022-11-25T20:48:38.542Z,6.94
2022-11-25T20:51:12.892Z,6.93
2022-11-25T20:53:43.720Z,6.93
2022-11-25T20:56:14.678Z,6.91
2022-11-25T20:58:45.693Z,7.00
2022-11-25T21:01:14.419Z,6.99
2022-11-25T21:03:42.566Z,7.03
2022-11-25T21:06:30.222Z,7.10
2022-11-25T21:08:58.886Z,7.11
2022-11-25T21:11:28.224Z,7.13
2022-11-25T21:13:55.110Z,7.11
2022-11-25T21:16:21.741Z,7.10
2022-11-25T21:18:48.175Z,7.14
2022-11-25T21:21:18.216Z,7.17
2022-11-25T21:23:47.035Z,7.14
2022-11-25T21:26:24.832Z,7.12
2022-11-25T21:28:53.001Z,7.10
2022-11-25T21:31:24.697Z,7.11
2022-11-25T21:33:57.784Z,7.07
2022-11-25T21:36:29.078Z,7.07
2022-11-25T21:39:19.558Z,7.05
2022-11-25T21:41:46.017Z,7.05
2022-11-25T21:44:24.147Z,7.08
2022-11-25T21:46:52.317Z,7.09
2022-11-25T21:49:18.788Z,7.08
2022-11-25T21:51:45.530Z,7.02
2022-11-25T21:54:14.476Z,6.99
2022-11-25T21:56:40.966Z,6.96
2022-11-25T21:59:08.176Z,6.88
2022-11-25T22:01:34.585Z,6.85
2022-11-25T22:04:03.477Z,6.73
2022-11-25T22:06:31.830Z,6.61
2022-11-25T22:08:58.277Z,6.56
2022-11-25T22:11:30.593Z,6.47
2022-11-25T22:13:57.132Z,6.43
2022-11-25T22:16:32.729Z,6.35
2022-11-25T22:18:59.933Z,6.37
2022-11-25T22:21:26.476Z,6.27
2022-11-25T22:23:52.891Z,6.24
2022-11-25T22:26:33.982Z,6.11
2022-11-25T22:29:02.272Z,6.01
2022-11-25T22:31:31.378Z,5.93
2022-11-25T22:33:57.889Z,5.83
2022-11-25T22:36:30.344Z,5.79
2022-11-25T22:38:58.305Z,5.68
2022-11-25T22:41:24.992Z,5.59
2022-11-25T22:43:52.549Z,5.68
2022-11-25T22:46:19.366Z,5.54
2022-11-25T22:48:46.471Z,5.44
2022-11-25T22:51:17.295Z,5.44
2022-11-25T22:53:43.780Z,5.32
2022-11-25T22:56:17.994Z,5.32
2022-11-25T22:58:44.946Z,5.28
2022-11-25T23:01:19.477Z,5.18
2022-11-25T23:03:51.888Z,5.18
2022-11-25T23:06:18.286Z,5.23
2022-11-25T23:08:44.679Z,5.13
2022-11-25T23:11:17.800Z,5.04
2022-11-25T23:13:48.645Z,5.02
2022-11-25T23:16:15.770Z,4.92
2022-11-25T23:18:45.876Z,4.86
2022-11-25T23:21:29.004Z,4.79
2022-11-25T23:23:58.217Z,4.97
2022-11-25T23:26:28.826Z,4.99
2022-11-25T23:28:58.622Z,5.16
2022-11-25T23:31:27.577Z,4.97
2022-11-25T23:33:54.024Z,4.94
2022-11-25T23:36:42.228Z,4.87
2022-11-25T23:39:17.796Z,4.82
2022-11-25T23:41:44.365Z,4.66
2022-11-25T23:44:17.424Z,4.58
2022-11-25T23:46:44.657Z,4.53
2022-11-25T23:49:27.894Z,4.49
2022-11-25T23:52:04.637Z,4.46
2022-11-25T23:54:42.425Z,4.32
2022-11-25T23:57:32.804Z,4.28
